KCDN/CDN METAR and TAF weather

Enter ICAO airport designator
Station Type Date Time Source
KCDN METAR 2019/08/24 08:55 UTC NOAA

KCDN 240855Z AUTO 00000KT 10SM BKN004 22/22 A3002 RMK AO2


Station Type Date Time Source
KCDN Decoded METAR 2019/08/24 08:55 UTC NOAA

Station name not available
Aug 24, 2019 - 04:55 AM EDT / 2019.08.24 0855 UTC
Wind: Calm:0
Visibility: 10 mile(s):0
Sky conditions: mostly cloudy
Temperature: 71 F (22 C)
Dew Point: 71 F (22 C)
Relative Humidity: 100%
Pressure (altimeter): 30.02 in. Hg (1016 hPa)
ob: KCDN 240855Z AUTO 00000KT 10SM BKN004 22/22 A3002 RMK AO2
cycle: 9

Station Type Date Time Source
KCDN TAF UTC NOAA

Error!

Example: see airport list